Texarkana Regional Airport/Webb Field

Airport
ICAO code: 
KTXK
Summary
ICAO Region: 
NAM
Territory: 
Location: 
Texarkana, Arkansas,
Coordinates: 
Aerial View: 
33° 27' 17.5" N, 93° 59' 21.259" W
Metar
Observation
KTXK 021553Z 24005KT 10SM CLR 17/11 A3018 RMK AO2 SLP218 T01670111
Station
Texarkana, Texarkana Regional-Webb Field
Date/Time
2021-12-02 15:53:00
Wind direction
240°
Wind speed
05 kts
Lowest cloud amount
n/a
Temperature
16.7°C
Dew point
11.1°C
Humidity
69%
Weather condition
n/a

Description

Regional airport serving Texarkana, Arkansas and Texarkana, Texas located 3 nm northwest of the city's business district.

Climatology

Humid “subtropical” climate (Köppen climate classification Cfa) - characterized by hot, humid summers and cool winters. Significant amounts of precipitation occur in all seasons in most areas. Winter rainfall (and sometimes snowfall) is associated with large storms that the westerlies steer from west to east. Most summer rainfall occurs during thunderstorms and occasional tropical storms (hurricanes).

Runways

Designator Length Width Surface Rops
13/31 1585 30 ASP Yes/Yes
4/22 2012 44 ASP Yes/Yes
Airport map: 
Aerial View: 

SKYbrary Partners:

Safety knowledge contributed by: